Chisholm Hibbing Airport Hibbing US
ICAO: KHIB
IATA: HIB
Category: Large
Scheduled Services: Yes

Elevation: 1354 ft
TransAlt. 18000 ft.

Airport Communications:
DULUTH APP/DEP:125.45
ASOS:126.425
DULUTH CLNC DEL:127.4
PRINCETON RDO:122.6
CTAF/UNICOM:123

KHIB Zoom In..

If you have problems with the map follow the link
https://www.worldairports.se/pages/airport.php?
ICAO=KHIB

Runways:

(A) RW 04 length 3075 ft width 75 ft
---- / hdg 47

(B) RW 13 length 6758 ft width 150 ft
ILS 110.50 / hdg 130

(C) RW 22 length 3075 ft width 75 ft
---- / hdg 227

(D) RW 31 length 6758 ft width 150 ft
ILS 109.50 / hdg 310

Location; KHIB
Day. 21 / Time. 08.53 Zulu
* Altimeter: 30.17
* Temperature: -04° c. -24.8°f.
* Wind from: 190° Speed 03 kn.
Dewpoint: -07° c.
Visibility: 10 Statute Miles.
Clouds: Few 12000 ft.

KHIB 210853Z AUTO 19003KT 10SM FEW120 M04/M07 A3017 RMK AO2 SLP236 T10441067 58019


Wind From 190°
Speed 03 kn.

 
 
jpsmedia.com for Web Design worldairports.se 2018   terms of use